Time;durP1;ratioP1;P1;durP2;ratioP2;P2;SDS_P1;SDS_P2;PMS_P1;PMS_P2;Temp;Humidity;BMP_temperature;BMP_pressure;BME280_temperature;BME280_humidity;BME280_pressure;Samples;Min_cycle;Max_cycle;Signal;HPM_P1;HPM_P2
2021/04/24 00:01:43;;;;;;;;;13.25;10.00;;;;;;;;5015342;28;11466;-80
2021/04/24 00:04:13;;;;;;;;;9.00;9.00;;;;;;;;5019191;28;12402;-80
2021/04/24 00:06:41;;;;;;;;;8.25;6.25;;;;;;;;5017197;28;11522;-76
2021/04/24 00:09:14;;;;;;;;;16.75;14.00;;;;;;;;5020577;28;12311;-77
2021/04/24 00:11:41;;;;;;;;;15.25;15.25;;;;;;;;5018306;28;11526;-85
2021/04/24 00:14:08;;;;;;;;;13.75;12.00;;;;;;;;5020150;28;11728;-79
2021/04/24 00:16:36;;;;;;;;;16.75;16.75;;;;;;;;5013059;28;12092;-79
2021/04/24 00:19:04;;;;;;;;;13.25;13.25;;;;;;;;5018380;28;11554;-80
2021/04/24 00:21:33;;;;;;;;;16.50;12.50;;;;;;;;5017599;28;12443;-80
2021/04/24 00:24:03;;;;;;;;;16.00;14.50;;;;;;;;5011575;28;11473;-79
2021/04/24 00:26:30;;;;;;;;;13.50;13.50;;;;;;;;5020804;28;11515;-79
2021/04/24 00:28:59;;;;;;;;;17.75;16.00;;;;;;;;5021508;28;11604;-78
2021/04/24 00:31:26;;;;;;;;;19.25;13.50;;;;;;;;5015031;28;11572;-79
2021/04/24 00:33:55;;;;;;;;;10.00;8.00;;;;;;;;5022676;28;11514;-78
2021/04/24 00:36:24;;;;;;;;;18.25;16.25;;;;;;;;5044558;28;11473;-78
2021/04/24 00:38:54;;;;;;;;;23.25;18.00;;;;;;;;5020335;28;11535;-78
2021/04/24 00:41:21;;;;;;;;;24.50;21.25;;;;;;;;5020659;28;11502;-78
2021/04/24 00:43:48;;;;;;;;;28.50;25.25;;;;;;;;5021626;28;11661;-77
2021/04/24 00:46:17;;;;;;;;;29.50;26.00;;;;;;;;5021082;28;11597;-78
2021/04/24 00:48:44;;;;;;;;;30.00;26.25;;;;;;;;5021215;28;11675;-76
2021/04/24 00:51:12;;;;;;;;;27.75;26.75;;;;;;;;5021778;28;11608;-77
2021/04/24 00:53:39;;;;;;;;;25.75;25.50;;;;;;;;5018897;28;11640;-77
2021/04/24 00:56:08;;;;;;;;;25.75;22.00;;;;;;;;5019539;28;11620;-77
2021/04/24 00:58:35;;;;;;;;;24.00;20.75;;;;;;;;5011539;28;11598;-77
2021/04/24 01:01:03;;;;;;;;;21.50;21.50;;;;;;;;5018905;28;11521;-78
2021/04/24 01:03:31;;;;;;;;;20.75;20.75;;;;;;;;5015607;28;11718;-78
2021/04/24 01:06:00;;;;;;;;;19.00;17.50;;;;;;;;5020740;28;12341;-79
2021/04/24 01:08:28;;;;;;;;;21.50;15.50;;;;;;;;5013910;28;11598;-79
2021/04/24 01:10:55;;;;;;;;;20.00;18.75;;;;;;;;5016400;28;11520;-79
2021/04/24 01:13:22;;;;;;;;;10.75;10.75;;;;;;;;5020898;28;11669;-79
2021/04/24 01:15:50;;;;;;;;;15.00;11.00;;;;;;;;5019866;28;12297;-78
2021/04/24 01:18:18;;;;;;;;;16.00;16.00;;;;;;;;5018314;28;11530;-79
2021/04/24 01:20:47;;;;;;;;;18.00;12.50;;;;;;;;5018851;28;11578;-79
2021/04/24 01:23:16;;;;;;;;;16.50;16.50;;;;;;;;5022165;28;12316;-79
2021/04/24 01:25:44;;;;;;;;;17.00;13.00;;;;;;;;5016654;28;11571;-79
2021/04/24 01:28:11;;;;;;;;;12.25;12.25;;;;;;;;5013702;28;11549;-79
2021/04/24 01:30:41;;;;;;;;;19.75;16.75;;;;;;;;5016864;28;11482;-79
2021/04/24 01:33:09;;;;;;;;;15.50;15.50;;;;;;;;5012837;28;11593;-79
2021/04/24 01:35:37;;;;;;;;;17.00;14.00;;;;;;;;5021191;28;11510;-79
2021/04/24 01:38:05;;;;;;;;;18.00;18.00;;;;;;;;5005706;28;11660;-79
2021/04/24 01:40:33;;;;;;;;;17.00;15.50;;;;;;;;5021160;28;11653;-79
2021/04/24 01:43:01;;;;;;;;;17.00;15.75;;;;;;;;5016230;28;11677;-80
2021/04/24 01:45:29;;;;;;;;;19.25;19.25;;;;;;;;5014421;28;11667;-80
2021/04/24 01:47:57;;;;;;;;;16.00;16.00;;;;;;;;5023987;28;11583;-79
2021/04/24 01:50:26;;;;;;;;;19.25;19.00;;;;;;;;5049507;28;11610;-79
2021/04/24 01:52:54;;;;;;;;;19.25;16.00;;;;;;;;5020770;28;11688;-79
2021/04/24 01:55:23;;;;;;;;;20.25;20.25;;;;;;;;5023143;28;12336;-78
2021/04/24 01:57:53;;;;;;;;;15.00;15.00;;;;;;;;5014603;28;11719;-77
2021/04/24 02:00:25;;;;;;;;;25.00;20.00;;;;;;;;5014157;28;11581;-76
2021/04/24 02:02:52;;;;;;;;;26.25;22.50;;;;;;;;5024431;28;11617;-75
2021/04/24 02:05:20;;;;;;;;;19.25;14.00;;;;;;;;5021118;28;11560;-76
2021/04/24 02:07:58;;;;;;;;;20.50;20.00;;;;;;;;5021318;28;11624;-77
2021/04/24 02:10:25;;;;;;;;;24.75;24.00;;;;;;;;5023391;28;11746;-77
2021/04/24 02:12:54;;;;;;;;;25.00;22.50;;;;;;;;5018270;28;11573;-76
2021/04/24 02:15:22;;;;;;;;;21.75;21.75;;;;;;;;5020867;28;11587;-77
2021/04/24 02:17:48;;;;;;;;;27.25;19.00;;;;;;;;5013286;28;11689;-78
2021/04/24 02:20:17;;;;;;;;;20.25;20.00;;;;;;;;5018546;28;12511;-77
2021/04/24 02:22:44;;;;;;;;;24.00;22.75;;;;;;;;5024903;28;11557;-77
2021/04/24 02:25:15;;;;;;;;;29.75;26.00;;;;;;;;5021210;28;11579;-78
2021/04/24 02:27:42;;;;;;;;;15.25;13.50;;;;;;;;5023414;28;12412;-78
2021/04/24 02:30:14;;;;;;;;;33.50;31.75;;;;;;;;5021420;28;11696;-78
2021/04/24 02:32:41;;;;;;;;;38.00;28.00;;;;;;;;5014818;28;11713;-77
2021/04/24 02:35:12;;;;;;;;;30.75;27.75;;;;;;;;5017810;28;11729;-79
2021/04/24 02:37:39;;;;;;;;;35.50;28.75;;;;;;;;5023790;28;11728;-77
2021/04/24 02:40:09;;;;;;;;;28.75;28.00;;;;;;;;5021747;28;11695;-77
2021/04/24 02:42:36;;;;;;;;;27.00;23.00;;;;;;;;5019051;28;11660;-77
2021/04/24 02:45:08;;;;;;;;;25.25;23.00;;;;;;;;5024299;28;11609;-76
2021/04/24 02:47:36;;;;;;;;;23.00;18.75;;;;;;;;5016311;28;11729;-77
2021/04/24 02:50:05;;;;;;;;;25.25;19.50;;;;;;;;5022952;28;11601;-77
2021/04/24 02:52:32;;;;;;;;;20.25;20.00;;;;;;;;5020266;28;11652;-77
2021/04/24 02:54:59;;;;;;;;;19.50;19.50;;;;;;;;5022964;28;11669;-77
2021/04/24 02:57:27;;;;;;;;;21.50;20.75;;;;;;;;5022969;28;11583;-77
2021/04/24 02:59:54;;;;;;;;;15.50;14.50;;;;;;;;5021488;28;11586;-79
2021/04/24 03:02:21;;;;;;;;;23.00;23.00;;;;;;;;5021360;28;11570;-79
2021/04/24 03:04:49;;;;;;;;;18.50;15.75;;;;;;;;5022555;28;11613;-79
2021/04/24 03:07:16;;;;;;;;;24.00;19.00;;;;;;;;5020934;28;12362;-79
2021/04/24 03:09:44;;;;;;;;;14.25;13.00;;;;;;;;5018058;28;11568;-78
2021/04/24 03:12:10;;;;;;;;;22.75;19.00;;;;;;;;5012483;28;11691;-78
2021/04/24 03:14:38;;;;;;;;;18.75;17.75;;;;;;;;5017054;28;12371;-79
2021/04/24 03:17:05;;;;;;;;;15.75;12.25;;;;;;;;5042571;28;11720;-79
2021/04/24 03:19:32;;;;;;;;;19.75;19.00;;;;;;;;5023968;28;11606;-78
2021/04/24 03:22:00;;;;;;;;;19.25;18.00;;;;;;;;5015590;28;11660;-78
2021/04/24 03:24:27;;;;;;;;;24.75;18.75;;;;;;;;5023151;28;11598;-77
2021/04/24 03:26:54;;;;;;;;;19.00;19.00;;;;;;;;5021618;28;11612;-78
2021/04/24 03:29:21;;;;;;;;;20.75;20.75;;;;;;;;5020793;28;11599;-79
2021/04/24 03:31:48;;;;;;;;;22.25;19.50;;;;;;;;5020556;28;11539;-78
2021/04/24 03:34:15;;;;;;;;;26.25;20.25;;;;;;;;5022875;28;11619;-79
2021/04/24 03:36:42;;;;;;;;;23.25;21.50;;;;;;;;5022666;28;12327;-78
2021/04/24 03:39:10;;;;;;;;;19.25;19.25;;;;;;;;5019232;28;11624;-78
2021/04/24 03:41:37;;;;;;;;;19.25;15.00;;;;;;;;5020653;28;11585;-79
2021/04/24 03:44:04;;;;;;;;;21.75;19.75;;;;;;;;5017884;28;11619;-79
2021/04/24 03:46:32;;;;;;;;;19.00;13.50;;;;;;;;5016985;28;11570;-81
2021/04/24 03:48:59;;;;;;;;;22.50;20.25;;;;;;;;5015072;28;11687;-78
2021/04/24 03:51:25;;;;;;;;;27.00;22.50;;;;;;;;5022061;28;11686;-81
2021/04/24 03:53:52;;;;;;;;;46.50;42.00;;;;;;;;5022714;28;11697;-80
2021/04/24 03:56:21;;;;;;;;;90.67;72.67;;;;;;;;5017888;28;11613;-78
2021/04/24 03:58:48;;;;;;;;;101.33;83.67;;;;;;;;5019520;28;8907;-78
2021/04/24 04:01:15;;;;;;;;;99.33;81.00;;;;;;;;5010612;28;8952;-82
2021/04/24 04:03:42;;;;;;;;;92.33;75.67;;;;;;;;5021322;28;8904;-78
2021/04/24 04:06:09;;;;;;;;;93.00;75.33;;;;;;;;5019515;28;8883;-76
2021/04/24 04:08:36;;;;;;;;;91.00;68.00;;;;;;;;5021288;28;8854;-79
2021/04/24 04:11:03;;;;;;;;;85.00;67.00;;;;;;;;5019429;28;8901;-79
2021/04/24 04:13:31;;;;;;;;;87.67;67.67;;;;;;;;5016082;28;8897;-79
2021/04/24 04:15:58;;;;;;;;;93.33;75.00;;;;;;;;5020568;28;8842;-79
2021/04/24 04:18:25;;;;;;;;;102.00;84.33;;;;;;;;5020695;28;8899;-78
2021/04/24 04:20:55;;;;;;;;;93.00;74.67;;;;;;;;5021559;28;8853;-77
2021/04/24 04:23:22;;;;;;;;;97.33;77.00;;;;;;;;5020993;28;8878;-76
2021/04/24 04:25:50;;;;;;;;;93.67;74.00;;;;;;;;5022133;28;8869;-78
2021/04/24 04:28:17;;;;;;;;;90.67;77.33;;;;;;;;5046841;28;9645;-78
2021/04/24 04:30:45;;;;;;;;;90.67;72.33;;;;;;;;5010679;28;8834;-78
2021/04/24 04:33:12;;;;;;;;;87.67;69.67;;;;;;;;5018387;28;8869;-79
2021/04/24 04:35:40;;;;;;;;;88.00;69.33;;;;;;;;5020525;28;8883;-78
2021/04/24 04:38:08;;;;;;;;;79.00;64.00;;;;;;;;5022303;28;8935;-78
2021/04/24 04:40:35;;;;;;;;;85.33;65.00;;;;;;;;5019115;28;8885;-79
2021/04/24 04:43:03;;;;;;;;;84.67;66.00;;;;;;;;5023175;28;8947;-78
2021/04/24 04:45:30;;;;;;;;;83.67;65.33;;;;;;;;5014543;28;8987;-77
2021/04/24 04:47:58;;;;;;;;;79.33;59.67;;;;;;;;5022601;28;8897;-78
2021/04/24 04:50:27;;;;;;;;;72.67;57.67;;;;;;;;5042494;28;8873;-77
2021/04/24 04:52:54;;;;;;;;;69.33;56.67;;;;;;;;5017210;28;11655;-80
2021/04/24 04:55:22;;;;;;;;;67.67;55.00;;;;;;;;5016078;28;11724;-77
2021/04/24 04:57:50;;;;;;;;;59.25;47.50;;;;;;;;5016870;28;11732;-76
2021/04/24 05:00:19;;;;;;;;;61.25;48.50;;;;;;;;5018911;28;11664;-81
2021/04/24 05:02:47;;;;;;;;;55.75;44.50;;;;;;;;5019699;28;11753;-75
2021/04/24 05:05:16;;;;;;;;;50.75;43.00;;;;;;;;5020813;28;12459;-82
2021/04/24 05:07:44;;;;;;;;;40.75;37.25;;;;;;;;5018043;28;11733;-80
2021/04/24 05:10:12;;;;;;;;;46.25;37.75;;;;;;;;5020497;28;11619;-80
2021/04/24 05:12:39;;;;;;;;;38.75;30.00;;;;;;;;5013837;28;11563;-80
2021/04/24 05:15:07;;;;;;;;;29.00;28.25;;;;;;;;5014738;28;11685;-80
2021/04/24 05:17:34;;;;;;;;;34.50;31.00;;;;;;;;5017868;28;11572;-85
2021/04/24 05:20:01;;;;;;;;;33.50;33.50;;;;;;;;5020887;28;11665;-80
2021/04/24 05:22:29;;;;;;;;;28.75;23.75;;;;;;;;5055877;28;11613;-83
2021/04/24 05:24:57;;;;;;;;;22.00;18.25;;;;;;;;5021299;28;11621;-82
2021/04/24 05:27:24;;;;;;;;;40.25;35.75;;;;;;;;5027056;28;11563;-85
2021/04/24 05:29:51;;;;;;;;;54.00;45.25;;;;;;;;5025336;28;11605;-81
2021/04/24 05:32:18;;;;;;;;;61.00;50.33;;;;;;;;5022477;28;11554;-78
2021/04/24 05:34:49;;;;;;;;;81.33;64.00;;;;;;;;5036229;28;11771;-80
2021/04/24 05:37:16;;;;;;;;;93.33;73.67;;;;;;;;5017872;28;8875;-82
2021/04/24 05:39:44;;;;;;;;;89.33;69.67;;;;;;;;5024212;28;8878;-82
2021/04/24 05:42:11;;;;;;;;;98.67;86.67;;;;;;;;5024243;28;9008;-82
2021/04/24 05:44:39;;;;;;;;;93.00;71.33;;;;;;;;5023409;28;8989;-85
2021/04/24 05:47:07;;;;;;;;;93.67;69.67;;;;;;;;5021048;28;8857;-82
2021/04/24 05:49:34;;;;;;;;;84.33;66.00;;;;;;;;5025386;28;8878;-80
2021/04/24 05:52:01;;;;;;;;;67.67;54.33;;;;;;;;5026406;28;8877;-83
2021/04/24 05:54:28;;;;;;;;;69.00;57.33;;;;;;;;5024855;28;8956;-81
2021/04/24 05:56:56;;;;;;;;;64.75;51.75;;;;;;;;5025779;28;11677;-82
2021/04/24 05:59:26;;;;;;;;;56.75;44.75;;;;;;;;5022111;28;11609;-83
2021/04/24 06:01:53;;;;;;;;;45.50;41.50;;;;;;;;5024807;28;11700;-82
2021/04/24 06:04:20;;;;;;;;;43.75;34.50;;;;;;;;5022883;28;11731;-83
2021/04/24 06:06:47;;;;;;;;;42.00;38.25;;;;;;;;5026017;28;11599;-83
2021/04/24 06:09:14;;;;;;;;;39.50;28.50;;;;;;;;5023514;28;11657;-80
2021/04/24 06:11:41;;;;;;;;;28.25;22.00;;;;;;;;5024829;28;11623;-80
2021/04/24 06:14:08;;;;;;;;;27.50;27.00;;;;;;;;5024646;28;11615;-81
2021/04/24 06:16:35;;;;;;;;;24.00;22.50;;;;;;;;5020677;28;11597;-81
2021/04/24 06:19:03;;;;;;;;;23.50;22.50;;;;;;;;5024283;28;11591;-81
2021/04/24 06:21:29;;;;;;;;;27.50;25.25;;;;;;;;5024307;28;11611;-79
2021/04/24 06:23:56;;;;;;;;;30.00;27.25;;;;;;;;5024911;28;11659;-79
2021/04/24 06:26:23;;;;;;;;;29.50;26.00;;;;;;;;5024055;28;11628;-80
2021/04/24 06:28:50;;;;;;;;;24.00;24.00;;;;;;;;5023821;28;11823;-79
2021/04/24 06:31:18;;;;;;;;;22.50;19.00;;;;;;;;5022519;28;12391;-79
2021/04/24 06:33:45;;;;;;;;;24.50;22.75;;;;;;;;5023063;28;11733;-84
2021/04/24 06:36:17;;;;;;;;;29.50;26.25;;;;;;;;5022367;28;11713;-80
2021/04/24 06:38:44;;;;;;;;;26.50;25.25;;;;;;;;5024119;28;11612;-84
2021/04/24 06:41:11;;;;;;;;;27.50;23.00;;;;;;;;5024625;28;11620;-82
2021/04/24 06:43:38;;;;;;;;;25.00;25.00;;;;;;;;5022362;28;11709;-82
2021/04/24 06:46:05;;;;;;;;;29.50;23.75;;;;;;;;5020946;28;11615;-81
2021/04/24 06:48:33;;;;;;;;;28.25;25.25;;;;;;;;5023097;28;11717;-80
2021/04/24 06:51:00;;;;;;;;;26.00;26.00;;;;;;;;5014697;28;11768;-80
2021/04/24 06:53:27;;;;;;;;;27.50;24.50;;;;;;;;5023218;28;11726;-79
2021/04/24 06:55:55;;;;;;;;;24.50;22.00;;;;;;;;5023382;28;11666;-84
2021/04/24 06:58:25;;;;;;;;;22.50;21.00;;;;;;;;5024197;28;11584;-81
2021/04/24 07:00:52;;;;;;;;;23.75;22.25;;;;;;;;5019289;28;11616;-85
2021/04/24 07:03:19;;;;;;;;;26.25;23.75;;;;;;;;5023604;28;11602;-74
2021/04/24 07:05:47;;;;;;;;;31.25;27.50;;;;;;;;5018914;28;11713;-75
2021/04/24 07:08:14;;;;;;;;;27.00;25.50;;;;;;;;5018205;28;11651;-75
2021/04/24 07:10:41;;;;;;;;;25.75;25.00;;;;;;;;5022095;28;11497;-77
2021/04/24 07:13:08;;;;;;;;;28.00;27.50;;;;;;;;5021516;28;11724;-76
2021/04/24 07:15:35;;;;;;;;;25.25;23.25;;;;;;;;5023378;28;11564;-75
2021/04/24 07:18:02;;;;;;;;;27.25;26.75;;;;;;;;5021533;28;11530;-74
2021/04/24 07:20:30;;;;;;;;;30.25;24.00;;;;;;;;5022101;28;11585;-75
2021/04/24 07:23:01;;;;;;;;;32.50;27.00;;;;;;;;5021510;28;11560;-75
2021/04/24 07:25:28;;;;;;;;;30.00;26.50;;;;;;;;5023633;28;11547;-75
2021/04/24 07:27:55;;;;;;;;;23.25;20.00;;;;;;;;5022533;28;11656;-73
2021/04/24 07:30:23;;;;;;;;;23.25;23.25;;;;;;;;5022235;28;11570;-73
2021/04/24 07:32:50;;;;;;;;;23.50;19.75;;;;;;;;5022732;28;11502;-73
2021/04/24 07:35:17;;;;;;;;;24.50;23.25;;;;;;;;5021016;28;11655;-73
2021/04/24 07:37:44;;;;;;;;;23.00;22.75;;;;;;;;5023412;28;11649;-74
2021/04/24 07:40:14;;;;;;;;;33.75;26.50;;;;;;;;5017873;28;11661;-78
2021/04/24 07:42:40;;;;;;;;;21.00;21.00;;;;;;;;5023043;28;11608;-76
2021/04/24 07:45:09;;;;;;;;;27.25;24.50;;;;;;;;5016483;28;11546;-74
2021/04/24 07:47:35;;;;;;;;;24.25;23.00;;;;;;;;5022228;28;11661;-73
2021/04/24 07:50:02;;;;;;;;;21.50;21.50;;;;;;;;5021823;28;12318;-73
2021/04/24 07:52:29;;;;;;;;;35.75;25.50;;;;;;;;5022474;28;11632;-73
2021/04/24 07:54:56;;;;;;;;;23.00;19.50;;;;;;;;5021552;28;11532;-75
2021/04/24 07:57:28;;;;;;;;;25.25;20.50;;;;;;;;5018913;28;11326;-75
2021/04/24 07:59:55;;;;;;;;;20.50;19.50;;;;;;;;5020719;28;11233;-76
2021/04/24 08:02:22;;;;;;;;;24.50;21.50;;;;;;;;5018054;28;11954;-76
2021/04/24 08:04:48;;;;;;;;;23.25;20.75;;;;;;;;5022224;28;11241;-75
2021/04/24 08:07:15;;;;;;;;;21.25;20.75;;;;;;;;5021743;28;11151;-75
2021/04/24 08:09:42;;;;;;;;;22.75;19.75;;;;;;;;5021165;28;11093;-73
2021/04/24 08:12:10;;;;;;;;;25.75;24.25;;;;;;;;5022119;28;10991;-73
2021/04/24 08:14:38;;;;;;;;;28.50;28.25;;;;;;;;5014727;28;10906;-73
2021/04/24 08:17:05;;;;;;;;;24.75;22.25;;;;;;;;5022310;28;11107;-73
2021/04/24 08:19:32;;;;;;;;;27.75;25.00;;;;;;;;5021785;28;10749;-72
2021/04/24 08:21:59;;;;;;;;;24.25;22.75;;;;;;;;5019059;28;10884;-73
2021/04/24 08:24:26;;;;;;;;;36.00;31.75;;;;;;;;5019937;28;11458;-74
2021/04/24 08:26:53;;;;;;;;;51.75;43.25;;;;;;;;5022149;28;10857;-73
2021/04/24 08:29:22;;;;;;;;;43.50;38.25;;;;;;;;5016502;28;11230;-73
2021/04/24 08:31:50;;;;;;;;;43.75;36.25;;;;;;;;5014408;28;10966;-73
2021/04/24 08:34:20;;;;;;;;;32.50;27.25;;;;;;;;5022715;28;10700;-75
2021/04/24 08:36:47;;;;;;;;;32.25;30.25;;;;;;;;5016408;28;10383;-72
2021/04/24 08:39:14;;;;;;;;;23.00;23.00;;;;;;;;5021852;28;10241;-70
2021/04/24 08:41:42;;;;;;;;;34.00;29.50;;;;;;;;5021030;28;9982;-72
2021/04/24 08:44:09;;;;;;;;;27.00;23.00;;;;;;;;5011207;28;10057;-72
2021/04/24 08:46:36;;;;;;;;;19.50;19.50;;;;;;;;5015817;28;10639;-72
2021/04/24 08:49:04;;;;;;;;;20.50;17.00;;;;;;;;5012928;28;9725;-71
2021/04/24 08:51:31;;;;;;;;;21.75;20.00;;;;;;;;5019486;28;9473;-72
2021/04/24 08:53:59;;;;;;;;;23.00;23.00;;;;;;;;5020662;28;9560;-73
2021/04/24 08:56:28;;;;;;;;;17.33;14.67;;;;;;;;5014348;28;9483;-70
2021/04/24 08:58:56;;;;;;;;;23.33;21.33;;;;;;;;5010195;28;9486;-71
2021/04/24 09:01:24;;;;;;;;;24.33;21.00;;;;;;;;5022888;28;9301;-69
2021/04/24 09:03:51;;;;;;;;;22.33;21.67;;;;;;;;5018672;28;9253;-70
2021/04/24 09:06:21;;;;;;;;;21.33;21.33;;;;;;;;5017801;28;9275;-72
2021/04/24 09:08:56;;;;;;;;;17.33;12.67;;;;;;;;5019375;28;9864;-70
2021/04/24 09:11:23;;;;;;;;;24.33;22.33;;;;;;;;5015629;28;9198;-70
2021/04/24 09:14:01;;;;;;;;;24.33;23.00;;;;;;;;5019363;28;9304;-69
2021/04/24 09:16:28;;;;;;;;;21.00;18.33;;;;;;;;5020809;28;9111;-74
2021/04/24 09:18:57;;;;;;;;;21.00;17.50;;;;;;;;5014568;28;9071;-69
2021/04/24 09:21:26;;;;;;;;;20.00;16.75;;;;;;;;5021544;28;8957;-72
2021/04/24 09:23:54;;;;;;;;;22.00;22.00;;;;;;;;5016047;28;8889;-70
2021/04/24 09:26:22;;;;;;;;;18.75;18.75;;;;;;;;5019458;28;8880;-70
2021/04/24 09:28:58;;;;;;;;;20.00;18.50;;;;;;;;5026679;28;8869;-69
2021/04/24 09:31:26;;;;;;;;;29.00;25.50;;;;;;;;5025433;28;8816;-70
2021/04/24 09:33:55;;;;;;;;;25.00;23.75;;;;;;;;5034291;28;8896;-69
2021/04/24 09:36:23;;;;;;;;;20.25;18.50;;;;;;;;5021388;28;8882;-73
2021/04/24 09:38:53;;;;;;;;;18.50;17.00;;;;;;;;5026486;28;8886;-69
2021/04/24 09:41:21;;;;;;;;;21.25;18.50;;;;;;;;5030328;28;8859;-71
2021/04/24 09:43:57;;;;;;;;;20.00;20.00;;;;;;;;5034470;28;8864;-70
2021/04/24 09:46:26;;;;;;;;;21.75;20.50;;;;;;;;5025970;28;8883;-70
2021/04/24 09:49:08;;;;;;;;;21.25;19.25;;;;;;;;5031368;28;9723;-70
2021/04/24 09:51:40;;;;;;;;;18.00;16.75;;;;;;;;5033214;28;8877;-69
2021/04/24 09:54:09;;;;;;;;;20.25;19.75;;;;;;;;5032734;28;9829;-72
2021/04/24 09:56:38;;;;;;;;;23.75;19.50;;;;;;;;5030126;28;8843;-71
2021/04/24 09:59:06;;;;;;;;;23.50;21.75;;;;;;;;5021665;28;8855;-71
2021/04/24 10:01:34;;;;;;;;;19.25;18.75;;;;;;;;5030368;28;8854;-69
2021/04/24 10:04:02;;;;;;;;;19.50;19.50;;;;;;;;5027736;28;8888;-70
2021/04/24 10:06:36;;;;;;;;;19.50;19.50;;;;;;;;5031146;28;8857;-74
2021/04/24 10:09:26;;;;;;;;;22.00;19.75;;;;;;;;5027388;28;8862;-74
2021/04/24 10:12:09;;;;;;;;;21.00;21.00;;;;;;;;5021632;28;8869;-70
2021/04/24 10:14:39;;;;;;;;;24.75;23.50;;;;;;;;5032438;28;8877;-75
2021/04/24 10:17:07;;;;;;;;;18.75;18.75;;;;;;;;5023481;28;8976;-74
2021/04/24 10:19:36;;;;;;;;;19.50;19.25;;;;;;;;5021770;28;8960;-73
2021/04/24 10:22:04;;;;;;;;;25.50;22.75;;;;;;;;5031550;28;8863;-73
2021/04/24 10:24:33;;;;;;;;;28.00;25.75;;;;;;;;5021082;28;8865;-80
2021/04/24 10:27:03;;;;;;;;;21.00;19.75;;;;;;;;5018771;28;8907;-73
2021/04/24 10:29:30;;;;;;;;;20.50;20.00;;;;;;;;5022058;28;8996;-73
2021/04/24 10:31:57;;;;;;;;;17.00;16.75;;;;;;;;5029287;28;8842;-72
2021/04/24 10:34:24;;;;;;;;;18.25;17.25;;;;;;;;5035283;28;8882;-74
2021/04/24 10:36:52;;;;;;;;;18.25;18.25;;;;;;;;5021760;28;9766;-73
2021/04/24 10:39:22;;;;;;;;;16.50;16.50;;;;;;;;5014271;28;8885;-74
2021/04/24 10:42:00;;;;;;;;;18.00;18.00;;;;;;;;5023609;28;8920;-74
2021/04/24 10:44:45;;;;;;;;;17.00;16.75;;;;;;;;5019268;28;8901;-74
2021/04/24 10:47:12;;;;;;;;;16.75;16.75;;;;;;;;5021781;28;8868;-73
2021/04/24 10:49:55;;;;;;;;;23.50;16.50;;;;;;;;5036391;28;8872;-74
2021/04/24 10:52:23;;;;;;;;;14.00;14.00;;;;;;;;5038973;28;8858;-73
2021/04/24 10:55:19;;;;;;;;;18.00;18.00;;;;;;;;5033387;28;8868;-74
2021/04/24 10:57:49;;;;;;;;;5.50;4.25;;;;;;;;5025927;28;8885;-76
2021/04/24 11:00:17;;;;;;;;;18.25;16.50;;;;;;;;5037896;28;8883;-74
2021/04/24 11:02:46;;;;;;;;;17.25;17.25;;;;;;;;5030622;28;9700;-76
2021/04/24 11:05:18;;;;;;;;;18.50;18.50;;;;;;;;5022702;28;8892;-75
2021/04/24 11:07:45;;;;;;;;;22.00;19.75;;;;;;;;5030016;28;8931;-75
2021/04/24 11:10:26;;;;;;;;;18.00;17.00;;;;;;;;5031310;28;8871;-76
2021/04/24 11:12:55;;;;;;;;;20.25;17.00;;;;;;;;5029707;28;8896;-75
2021/04/24 11:15:23;;;;;;;;;20.50;16.00;;;;;;;;5034913;28;8904;-72
2021/04/24 11:17:51;;;;;;;;;19.50;15.25;;;;;;;;5031237;28;8884;-72
2021/04/24 11:20:46;;;;;;;;;17.00;17.00;;;;;;;;5024054;28;8982;-73
2021/04/24 11:23:41;;;;;;;;;17.50;17.00;;;;;;;;5019906;28;8904;-76
2021/04/24 11:26:09;;;;;;;;;17.75;16.25;;;;;;;;5022949;28;9691;-77
2021/04/24 11:29:09;;;;;;;;;18.75;18.75;;;;;;;;5022113;28;8873;-77
2021/04/24 11:32:01;;;;;;;;;19.00;14.25;;;;;;;;5015677;28;8814;-78
2021/04/24 11:34:34;;;;;;;;;21.00;17.80;;;;;;;;5012684;28;8858;-77
2021/04/24 11:37:39;;;;;;;;;18.80;18.40;;;;;;;;5023229;28;8862;-76
2021/04/24 11:40:29;;;;;;;;;18.60;18.60;;;;;;;;5014483;28;8884;-70
2021/04/24 11:42:59;;;;;;;;;14.40;14.40;;;;;;;;5010433;28;8876;-71
2021/04/24 11:45:49;;;;;;;;;13.00;13.00;;;;;;;;5017459;28;8862;-75
2021/04/24 11:48:16;;;;;;;;;12.00;12.00;;;;;;;;5014846;28;8849;-74
2021/04/24 11:50:46;;;;;;;;;16.80;15.00;;;;;;;;5019572;28;9883;-75
2021/04/24 11:53:15;;;;;;;;;19.40;19.00;;;;;;;;5007822;28;8872;-74
2021/04/24 11:55:42;;;;;;;;;13.40;13.40;;;;;;;;5017945;28;8878;-74
2021/04/24 11:58:09;;;;;;;;;19.40;15.00;;;;;;;;5018478;28;8904;-75
2021/04/24 12:00:37;;;;;;;;;11.40;11.40;;;;;;;;5016944;28;8818;-74
2021/04/24 12:03:05;;;;;;;;;14.80;14.80;;;;;;;;5022248;28;9647;-73
2021/04/24 12:05:32;;;;;;;;;16.20;15.40;;;;;;;;5019019;28;9527;-74
2021/04/24 12:07:59;;;;;;;;;16.60;14.00;;;;;;;;5019741;28;8968;-84
2021/04/24 12:10:29;;;;;;;;;14.40;14.40;;;;;;;;5016807;28;8911;-75
2021/04/24 12:13:08;;;;;;;;;10.60;10.60;;;;;;;;5010459;28;8869;-74
2021/04/24 12:15:36;;;;;;;;;16.00;12.20;;;;;;;;5015396;28;8874;-77
2021/04/24 12:18:06;;;;;;;;;14.00;13.40;;;;;;;;5051701;28;8868;-80
2021/04/24 12:20:34;;;;;;;;;15.20;12.80;;;;;;;;5016338;28;8896;-77
2021/04/24 12:23:03;;;;;;;;;12.80;12.80;;;;;;;;5019045;28;8870;-77
2021/04/24 12:25:31;;;;;;;;;14.20;12.60;;;;;;;;5022883;28;8861;-72
2021/04/24 12:28:00;;;;;;;;;14.20;10.60;;;;;;;;5018140;28;8889;-75
2021/04/24 12:30:28;;;;;;;;;12.60;12.00;;;;;;;;5014467;28;8802;-74
2021/04/24 12:32:57;;;;;;;;;16.80;16.60;;;;;;;;5011089;28;8949;-75
2021/04/24 12:35:27;;;;;;;;;14.60;14.60;;;;;;;;5010242;28;8868;-75
2021/04/24 12:38:02;;;;;;;;;14.60;14.60;;;;;;;;5010271;28;9646;-76
2021/04/24 12:40:32;;;;;;;;;12.60;12.20;;;;;;;;5012302;28;8874;-78
2021/04/24 12:43:04;;;;;;;;;15.20;15.20;;;;;;;;5019731;28;8902;-78
2021/04/24 12:45:32;;;;;;;;;16.40;14.20;;;;;;;;5013499;28;8902;-81
2021/04/24 12:47:59;;;;;;;;;18.00;16.40;;;;;;;;5019651;28;8861;-74
2021/04/24 12:50:29;;;;;;;;;16.80;16.40;;;;;;;;5015206;28;8881;-74
2021/04/24 12:52:59;;;;;;;;;18.20;15.60;;;;;;;;5019468;28;8865;-73
2021/04/24 12:55:31;;;;;;;;;12.20;11.80;;;;;;;;5020473;28;8980;-73
2021/04/24 12:58:00;;;;;;;;;15.20;13.20;;;;;;;;5017890;28;8869;-75
2021/04/24 13:00:33;;;;;;;;;15.40;13.80;;;;;;;;5021003;28;9625;-73
2021/04/24 13:03:00;;;;;;;;;17.40;15.60;;;;;;;;5014913;28;8925;-75
2021/04/24 13:05:36;;;;;;;;;15.20;11.80;;;;;;;;5011129;28;9664;-76
2021/04/24 13:08:11;;;;;;;;;17.40;14.60;;;;;;;;5014420;28;8888;-74
2021/04/24 13:10:39;;;;;;;;;14.80;14.20;;;;;;;;5009200;28;8864;-70
2021/04/24 13:13:06;;;;;;;;;14.60;13.40;;;;;;;;5018174;28;8888;-73
2021/04/24 13:15:41;;;;;;;;;13.40;13.40;;;;;;;;5013856;28;8857;-74
2021/04/24 13:18:31;;;;;;;;;14.20;14.20;;;;;;;;5020889;28;8877;-71
2021/04/24 13:21:20;;;;;;;;;14.60;14.60;;;;;;;;5018672;28;8957;-75
2021/04/24 13:24:04;;;;;;;;;12.20;12.20;;;;;;;;5013664;28;8869;-75
2021/04/24 13:26:31;;;;;;;;;13.40;13.40;;;;;;;;5021827;28;9013;-72
2021/04/24 13:29:12;;;;;;;;;13.00;12.80;;;;;;;;5020157;28;8954;-75
2021/04/24 13:31:39;;;;;;;;;16.20;14.00;;;;;;;;5007678;28;8829;-75
2021/04/24 13:34:33;;;;;;;;;16.60;16.60;;;;;;;;5020072;28;8857;-75
2021/04/24 13:37:03;;;;;;;;;16.60;15.40;;;;;;;;5016375;28;8884;-76
2021/04/24 13:39:31;;;;;;;;;13.60;13.60;;;;;;;;5053442;28;8902;-75
2021/04/24 13:42:08;;;;;;;;;17.20;14.80;;;;;;;;5019847;28;9714;-75
2021/04/24 13:44:35;;;;;;;;;14.40;13.40;;;;;;;;5020740;28;8881;-71
2021/04/24 13:47:01;;;;;;;;;14.20;12.80;;;;;;;;5022249;28;8948;-76
2021/04/24 13:49:28;;;;;;;;;19.20;15.80;;;;;;;;5024195;28;8858;-76
2021/04/24 13:51:57;;;;;;;;;15.60;14.60;;;;;;;;5023546;28;8929;-72
2021/04/24 13:54:25;;;;;;;;;16.80;13.20;;;;;;;;5023482;28;8876;-72
2021/04/24 13:56:54;;;;;;;;;15.80;15.00;;;;;;;;5025405;28;9008;-76
2021/04/24 13:59:21;;;;;;;;;17.60;17.40;;;;;;;;5023282;28;8877;-73
2021/04/24 14:01:48;;;;;;;;;17.00;15.40;;;;;;;;5024426;28;8821;-75
2021/04/24 14:04:15;;;;;;;;;15.00;14.80;;;;;;;;5022697;28;8850;-72
2021/04/24 14:06:43;;;;;;;;;19.80;16.80;;;;;;;;5015707;28;8862;-77
2021/04/24 14:09:10;;;;;;;;;19.00;15.00;;;;;;;;5021866;28;8862;-75
2021/04/24 14:11:39;;;;;;;;;20.80;20.80;;;;;;;;5015196;28;8990;-73
2021/04/24 14:14:07;;;;;;;;;24.00;18.60;;;;;;;;5017926;28;8905;-77
2021/04/24 14:16:35;;;;;;;;;15.00;14.20;;;;;;;;5022421;28;9000;-76
2021/04/24 14:19:03;;;;;;;;;10.20;10.20;;;;;;;;5023236;28;8861;-79
2021/04/24 14:21:29;;;;;;;;;20.00;20.00;;;;;;;;5024260;28;8984;-74
2021/04/24 14:23:57;;;;;;;;;18.60;18.60;;;;;;;;5023235;28;8857;-76
2021/04/24 14:26:24;;;;;;;;;14.40;14.40;;;;;;;;5022696;28;9761;-77
2021/04/24 14:28:53;;;;;;;;;15.00;15.00;;;;;;;;5013117;28;8892;-78
2021/04/24 14:31:20;;;;;;;;;20.00;17.40;;;;;;;;5019510;28;8818;-75
2021/04/24 14:33:47;;;;;;;;;19.80;16.40;;;;;;;;5016564;28;8857;-76
2021/04/24 14:36:14;;;;;;;;;12.60;12.60;;;;;;;;5019490;28;8885;-76